• Join FlightAware (Why Join?)
  • Login
  • US Flag 
05:12PM EDT


 

Airport Tracker/Info


-or-


 

Live Flight TrackerFlight Track Log ✈ AMF1026 ✈ 16-Aug-2013 ✈ KALB - KCVG

Flight Track Log - Related Links

Times and Time Zones

All times are in EDT time to prevent confusion due to time zone crossing. See the AMF1026 flight status page for this flight to view local times or setup timezone preferences in your user account.

Time Position Orientation Groundspeed Altitude Reporting Facility
EDT Latitude Longitude Course Direction KTS MPH feet Rate Location/Type
09:00PM 42.7672 -73.8061 329° Northwest 150 173 1,000  Level Boston Center
09:01PM 42.7961 -73.8294 329° Northwest 166 191 2,400 1,800 Climbing Boston Center
09:02PM 42.7747 -73.8856 243° Southwest 174 200 4,100 1,560 Climbing Boston Center
09:03PM 42.7617 -73.9247 246° West 182 209 5,200 1,500 Climbing Boston Center
09:04PM 42.7503 -73.9925 257° West 188 216 6,800 1,620 Climbing Boston Center
09:05PM 42.7494 -74.0572 269° West 188 216 8,500 1,740 Climbing Boston Center
09:06PM 42.7464 -74.1253 267° West 175 201 10,300 1,560 Climbing Boston Center
09:07PM 42.7472 -74.1986 271° West 181 208 11,600 1,140 Climbing Boston Center
09:08PM 42.7483 -74.2636 271° West 186 214 12,600 1,080 Climbing Boston Center
09:09PM 42.7450 -74.3400 267° West 186 214 13,800 1,080 Climbing Boston Center
09:10PM 42.7253 -74.4017 246° West 191 220 14,800 1,020 Climbing Boston Center
09:11PM 42.6989 -74.4742 244° Southwest 196 226 15,900 600 Climbing Boston Center
09:12PM 42.6769 -74.5411 246° West 209 241 16,100 60 Climbing Boston Center
09:13PM 42.6522 -74.6364 251° West 239 275 16,100  Level Boston Center
09:14PM 42.6339 -74.7147 252° West 247 284 16,100  Level Boston Center
09:15PM 42.6131 -74.8183 255° West 253 291 16,100  Level Boston Center
09:16PM 42.5928 -74.8881 248° West 253 291 16,100  Level Boston Center
09:17PM 42.5617 -74.9772 245° Southwest 247 284 16,100  Level Boston Center
09:18PM 42.5308 -75.0575 242° Southwest 247 284 16,100  Level Boston Center
09:19PM 42.5017 -75.1381 244° Southwest 247 284 16,100  Level Boston Center
09:21PM 42.4267 -75.3411 243° Southwest 249 287 16,100  Level New York Center
09:22PM 42.3983 -75.4233 245° Southwest 254 292 16,100  Level New York Center
09:23PM 42.3681 -75.5081 244° Southwest 254 292 16,100  Level New York Center
09:24PM 42.3397 -75.5931 246° West 254 292 16,100  Level New York Center
09:25PM 42.3092 -75.6750 243° Southwest 254 292 16,100  Level New York Center
09:26PM 42.2808 -75.7569 245° Southwest 254 292 16,100  Level New York Center
09:27PM 42.2522 -75.8442 246° West 254 292 16,100  Level New York Center
09:28PM 42.2217 -75.9258 243° Southwest 254 292 16,100  Level New York Center
09:29PM 42.1950 -76.0106 247° West 254 292 16,100  Level New York Center
09:30PM 42.1664 -76.0922 245° Southwest 254 292 16,100  Level New York Center
09:31PM 42.1394 -76.1797 247° West 254 292 16,100  Level New York Center
09:32PM 42.1147 -76.2642 248° West 249 287 16,100  Level New York Center
09:33PM 42.0881 -76.3486 247° West 249 287 16,100  Level New York Center
09:34PM 42.0592 -76.4300 244° Southwest 249 287 16,100  Level New York Center
09:35PM 42.0322 -76.5169 247° West 249 287 16,100  Level New York Center
09:36PM 42.0033 -76.5983 244° Southwest 249 287 16,100  Level New York Center
09:37PM 41.9722 -76.6792 243° Southwest 249 287 16,100  Level New York Center
09:38PM 41.9389 -76.7600 241° Southwest 254 292 16,100  Level New York Center
09:39PM 41.9058 -76.8378 240° Southwest 254 292 16,100  Level New York Center
09:40PM 41.8706 -76.9153 239° Southwest 254 292 16,100  Level New York Center
09:42PM 41.7986 -77.0928 242° Southwest 246 283 16,100  Level Cleveland Center
09:43PM 41.7633 -77.1700 239° Southwest 246 283 16,100  Level Cleveland Center
09:44PM 41.7261 -77.2556 240° Southwest 246 283 16,100  Level Cleveland Center
09:45PM 41.6953 -77.3350 243° Southwest 246 283 16,100  Level Cleveland Center
09:46PM 41.6642 -77.4144 242° Southwest 246 283 16,100  Level Cleveland Center
09:47PM 41.6350 -77.4936 244° Southwest 246 283 16,100  Level Cleveland Center
09:48PM 41.5994 -77.5758 240° Southwest 251 289 16,100  Level Cleveland Center
09:49PM 41.5747 -77.6603 249° West 246 283 16,100  Level Cleveland Center
09:50PM 41.5558 -77.7444 253° West 241 277 16,100  Level Cleveland Center
09:51PM 41.5478 -77.8336 263° West 236 272 16,100  Level Cleveland Center
09:52PM 41.5350 -77.9200 259° West 241 277 16,100  Level Cleveland Center
09:53PM 41.5100 -78.0044 248° West 241 277 16,100  Level Cleveland Center
09:54PM 41.4828 -78.0914 247° West 247 284 16,100  Level Cleveland Center
09:55PM 41.4553 -78.1728 246° West 247 284 16,100  Level Cleveland Center
09:56PM 41.4339 -78.2456 249° West 253 291 16,100  Level Cleveland Center
09:57PM 41.4064 -78.3297 246° West 253 291 16,100  Level Cleveland Center
09:58PM 41.3808 -78.4108 247° West 253 291 16,100  Level Cleveland Center
09:59PM 41.3553 -78.4944 248° West 253 291 16,100  Level Cleveland Center
10:00PM 41.3253 -78.5758 244° Southwest 253 291 16,100  Level Cleveland Center
10:01PM 41.2975 -78.6567 245° Southwest 248 285 16,100  Level Cleveland Center
10:02PM 41.2656 -78.7350 242° Southwest 242 278 16,100  Level Cleveland Center
10:03PM 41.2356 -78.8133 243° Southwest 242 278 16,100  Level Cleveland Center
10:04PM 41.2097 -78.8939 247° West 242 278 16,100  Level Cleveland Center
10:05PM 41.1775 -78.9803 244° Southwest 242 278 16,100  Level Cleveland Center
10:06PM 41.1514 -79.0608 247° West 237 273 16,100  Level Cleveland Center
10:07PM 41.1275 -79.1442 249° West 242 278 16,100  Level Cleveland Center
10:08PM 41.1075 -79.2164 250° West 242 278 16,100 -60 Level Cleveland Center
10:09PM 41.0836 -79.2994 249° West 242 278 16,000 -60 Descending Cleveland Center
10:10PM 41.0636 -79.3853 253° West 242 278 16,000  Level Cleveland Center
10:11PM 41.0458 -79.4681 254° West 242 278 16,000  Level Cleveland Center
10:12PM 41.0278 -79.5536 254° West 247 284 16,000  Level Cleveland Center
10:13PM 41.0075 -79.6394 253° West 247 284 16,000  Level Cleveland Center
10:14PM 40.9894 -79.7194 253° West 247 284 16,000  Level Cleveland Center
10:15PM 40.9650 -79.7994 248° West 247 284 16,000  Level Cleveland Center
10:16PM 40.9406 -79.8822 249° West 247 284 16,000  Level Cleveland Center
10:17PM 40.9139 -79.9622 246° West 247 284 16,000  Level Cleveland Center
10:18PM 40.8894 -80.0419 248° West 247 284 16,000  Level Cleveland Center
10:19PM 40.8583 -80.1303 245° Southwest 247 284 16,000  Level Cleveland Center
10:20PM 40.8275 -80.1989 239° Southwest 247 284 16,000  Level Cleveland Center
10:21PM 40.7964 -80.2706 240° Southwest 241 277 16,000  Level Cleveland Center
10:22PM 40.7547 -80.3419 232° Southwest 241 277 16,000  Level Cleveland Center
10:23PM 40.7133 -80.4214 236° Southwest 247 284 16,000  Level Cleveland Center
10:24PM 40.6736 -80.4872 232° Southwest 242 278 16,000  Level Cleveland Center
10:25PM 40.6322 -80.5586 233° Southwest 242 278 16,000  Level Cleveland Center
10:26PM 40.5944 -80.6186 230° Southwest 242 278 16,000  Level Cleveland Center
10:27PM 40.5550 -80.6869 233° Southwest 237 273 16,000  Level Cleveland Center
10:28PM 40.5172 -80.7578 235° Southwest 237 273 16,000  Level Cleveland Center
10:29PM 40.4775 -80.8286 234° Southwest 243 280 16,000  Level Cleveland Center
10:30PM 40.4419 -80.8994 237° Southwest 243 280 16,000  Level Cleveland Center
10:31PM 40.4042 -80.9675 234° Southwest 243 280 16,000  Level Cleveland Center
10:32PM 40.3664 -81.0408 236° Southwest 243 280 16,000  Level Cleveland Center
10:33PM 40.3286 -81.1114 235° Southwest 243 280 16,100  Climbing Cleveland Center
10:34PM 40.3100 -81.1422 232° Southwest 238 274 16,000 -120 Descending Indianapolis Center
10:35PM 40.2642 -81.2267 235° Southwest 240 276 16,000  Level Indianapolis Center
10:36PM 40.2281 -81.2967 236° Southwest 233 268 16,000  Level Indianapolis Center
10:37PM 40.1911 -81.3708 237° Southwest 239 275 16,000  Level Indianapolis Center
10:38PM 40.1581 -81.4461 240° Southwest 237 273 16,000  Level Indianapolis Center
10:39PM 40.1261 -81.5244 242° Southwest 241 277 16,000  Level Indianapolis Center
10:40PM 40.0964 -81.6006 243° Southwest 235 270 16,000  Level Indianapolis Center
10:41PM 40.0644 -81.6764 241° Southwest 236 272 16,000  Level Indianapolis Center
10:42PM 40.0317 -81.7528 241° Southwest 239 275 16,000  Level Indianapolis Center
10:43PM 39.9986 -81.8242 239° Southwest 238 274 16,000  Level Indianapolis Center
10:44PM 39.9683 -81.9014 243° Southwest 237 273 16,000  Level Indianapolis Center
10:45PM 39.9400 -81.9800 245° Southwest 239 275 16,000  Level Indianapolis Center
10:46PM 39.9111 -82.0592 245° Southwest 241 277 16,000  Level Indianapolis Center
10:47PM 39.8828 -82.1392 245° Southwest 242 278 16,000  Level Indianapolis Center
10:48PM 39.8550 -82.2192 246° West 243 280 16,000  Level Indianapolis Center
10:49PM 39.8275 -82.2992 246° West 242 278 16,000  Level Indianapolis Center
10:50PM 39.8000 -82.3808 246° West 244 281 16,000  Level Indianapolis Center
10:51PM 39.7733 -82.4619 247° West 245 282 16,000  Level Indianapolis Center
10:52PM 39.7453 -82.5428 246° West 245 282 16,000  Level Indianapolis Center
10:53PM 39.7139 -82.6378 247° West 246 283 16,000  Level Indianapolis Center
10:54PM 39.6869 -82.7189 247° West 245 282 16,000  Level Indianapolis Center
10:55PM 39.6600 -82.8006 247° West 246 283 16,000  Level Indianapolis Center
10:56PM 39.6328 -82.8819 247° West 245 282 16,000  Level Indianapolis Center
10:57PM 39.6047 -82.9639 246° West 247 284 16,000  Level Indianapolis Center
10:58PM 39.5775 -83.0467 247° West 247 284 16,000  Level Indianapolis Center
10:59PM 39.5492 -83.1286 246° West 248 285 16,000  Level Indianapolis Center
11:00PM 39.5217 -83.2117 247° West 249 287 16,000  Level Indianapolis Center
11:01PM 39.4933 -83.2939 246° West 248 285 16,000 -60 Level Indianapolis Center
11:02PM 39.4667 -83.3769 247° West 248 285 15,900 -600 Descending Indianapolis Center
11:03PM 39.4333 -83.4656 244° Southwest 270 311 14,800 -1,080 Descending Indianapolis Center
11:04PM 39.4025 -83.5589 247° West 279 321 13,800 -1,020 Descending Indianapolis Center
11:05PM 39.3731 -83.6517 248° West 275 316 12,800 -900 Descending Indianapolis Center
11:07PM 39.3458 -83.7436 249° West 272 313 12,000 -420 Descending Indianapolis Center
11:08PM 39.3219 -83.8317 251° West 259 298 12,000  Level Indianapolis Center
11:09PM 39.2964 -83.9189 249° West 257 296 12,000  Level Indianapolis Center
11:10PM 39.2711 -84.0036 249° West 254 292 12,000 -600 Level Indianapolis Center
11:11PM 39.2431 -84.0892 247° West 256 295 10,800 -1,500 Descending Indianapolis Center
11:12PM 39.2036 -84.1689 237° Southwest 262 302 9,000 -1,500 Descending Indianapolis Center
11:13PM 39.1597 -84.2406 232° Southwest 253 291 7,800 -1,020 Descending Indianapolis Center
11:14PM 39.1197 -84.3078 233° Southwest 237 273 7,000 -540 Descending Indianapolis Center
11:15PM 39.0814 -84.3722 233° Southwest 228 262 6,800 -600 Descending Indianapolis Center
11:16PM 39.0275 -84.4147 211° Southwest 223 257 5,800 -1,020 Descending Indianapolis Center
11:17PM 38.9778 -84.4617 216° Southwest 220 253 4,800 -1,020 Descending Indianapolis Center
11:18PM 38.9283 -84.5117 218° Southwest 211 243 3,800 -660 Descending Indianapolis Center
11:19PM 38.8667 -84.6000 228° Southwest 210 242 3,000 -300 Descending Cincinnati TRACON
11:20PM 38.9000 -84.6667 303° West 203 234 3,100 -240 Climbing Cincinnati TRACON
11:21PM 38.9500 -84.6667 360° North 178 205 2,600 -660 Descending Cincinnati TRACON
11:22PM 38.9833 -84.6667 360° North 122 140 1,800 -780 Descending Cincinnati TRACON
11:23PM 39.0167 -84.6667 360° North 117 135 1,100 -720 Descending Cincinnati TRACON